Terminal Aerodrome Forecast
Issued by NWS Atlanta, GA

Home | Current Version | Previous Version | Text Only | Print | Product List | Glossary On
Versions: 1 2 3 4 5 6 7 8 9 10 11 12 13 14 15 16 17 18 19 20 21 22 23 24 25 26 27 28 29 30 31 32 33 34 35 36 37 38 39 40 41
000
FTUS42 KFFC 140800 AAA
TAFATL
TAF AMD
KATL 140806Z 1408/1512 16010KT P6SM BKN070
     FM141200 15007KT P6SM BKN025
     FM141500 17008KT P6SM -SHRA OVC015
     FM141800 19008KT 6SM -TSRA BR SCT010 BKN025CB
     FM150100 19009KT 6SM SHRA BR OVC015
     FM150600 22010KT 6SM SHRA BR OVC006=

USA.gov is the U.S. government's official web portal to all federal, state and local government web resources and services.